createdAt,value
2022-12-31T00:00:34.754Z,9.65
2022-12-31T00:03:22.096Z,9.68
2022-12-31T00:05:49.196Z,9.65
2022-12-31T00:08:16.357Z,9.54
2022-12-31T00:10:43.314Z,9.57
2022-12-31T00:13:12.791Z,9.55
2022-12-31T00:15:41.607Z,9.63
2022-12-31T00:18:09.234Z,9.50
2022-12-31T00:20:41.015Z,9.53
2022-12-31T00:23:10.243Z,9.62
2022-12-31T00:25:37.663Z,9.62
2022-12-31T00:28:05.643Z,9.66
2022-12-31T00:30:34.292Z,9.69
2022-12-31T00:33:01.562Z,9.64
2022-12-31T00:35:28.505Z,9.65
2022-12-31T00:37:55.720Z,9.63
2022-12-31T00:40:22.662Z,9.61
2022-12-31T00:42:49.913Z,9.62
2022-12-31T00:45:16.996Z,9.65
2022-12-31T00:47:44.212Z,9.69
2022-12-31T00:50:11.257Z,9.70
2022-12-31T00:52:38.506Z,9.67
2022-12-31T00:55:06.253Z,9.73
2022-12-31T00:57:33.559Z,9.75
2022-12-31T01:00:00.628Z,9.80
2022-12-31T01:02:27.994Z,9.81
2022-12-31T01:04:55.074Z,9.82
2022-12-31T01:07:22.305Z,9.82
2022-12-31T01:09:49.336Z,9.82
2022-12-31T01:12:16.594Z,9.85
2022-12-31T01:14:44.846Z,9.87
2022-12-31T01:17:13.432Z,9.92
2022-12-31T01:19:40.539Z,9.98
2022-12-31T01:22:07.724Z,10.03
2022-12-31T01:24:34.760Z,10.07
2022-12-31T01:27:01.910Z,10.08
2022-12-31T01:29:29.726Z,10.10
2022-12-31T01:31:57.036Z,10.13
2022-12-31T01:34:23.977Z,10.16
2022-12-31T01:36:51.359Z,10.16
2022-12-31T01:39:18.249Z,10.16
2022-12-31T01:41:47.931Z,10.15
2022-12-31T01:44:23.997Z,10.13
2022-12-31T01:47:00.181Z,10.19
2022-12-31T01:49:41.114Z,10.20
2022-12-31T01:52:46.920Z,10.22
2022-12-31T01:55:32.864Z,10.12
2022-12-31T01:58:14.249Z,10.12
2022-12-31T02:00:42.155Z,10.09
2022-12-31T02:03:09.771Z,10.14
2022-12-31T02:05:53.111Z,10.16
2022-12-31T02:08:21.985Z,10.23
2022-12-31T02:10:49.013Z,10.26
2022-12-31T02:13:16.496Z,10.28
2022-12-31T02:16:13.648Z,10.28
2022-12-31T02:18:56.323Z,10.29
2022-12-31T02:21:55.825Z,10.31
2022-12-31T02:24:48.135Z,10.34
2022-12-31T02:28:11.834Z,10.36
2022-12-31T02:30:42.519Z,10.40
2022-12-31T02:33:39.013Z,10.43
2022-12-31T02:36:17.903Z,10.44
2022-12-31T02:38:48.761Z,10.46
2022-12-31T02:41:38.307Z,10.48
2022-12-31T02:44:26.049Z,10.49
2022-12-31T02:47:05.290Z,10.49
2022-12-31T02:49:57.291Z,10.46
2022-12-31T02:52:51.265Z,10.49
2022-12-31T02:56:08.895Z,10.49
2022-12-31T02:59:12.126Z,10.51
2022-12-31T03:02:08.128Z,10.52
2022-12-31T03:04:36.391Z,10.54
2022-12-31T03:07:28.875Z,10.55
2022-12-31T03:09:56.717Z,10.57
2022-12-31T03:12:47.091Z,10.63
2022-12-31T03:15:27.792Z,10.70
2022-12-31T03:17:57.775Z,10.76
2022-12-31T03:20:50.647Z,10.82
2022-12-31T03:23:30.169Z,10.88
2022-12-31T03:25:58.874Z,10.97
2022-12-31T03:28:30.123Z,11.06
2022-12-31T03:31:01.549Z,11.09
2022-12-31T03:33:41.501Z,11.12
2022-12-31T03:36:14.326Z,11.12
2022-12-31T03:38:41.738Z,11.09
2022-12-31T03:41:11.190Z,11.08
2022-12-31T03:43:38.984Z,11.07
2022-12-31T03:46:06.579Z,11.05
2022-12-31T03:48:33.555Z,11.02
2022-12-31T03:51:00.738Z,11.05
2022-12-31T03:53:27.793Z,11.07
2022-12-31T03:55:55.624Z,11.09
2022-12-31T03:58:23.198Z,11.14
2022-12-31T04:00:51.040Z,11.17
2022-12-31T04:03:18.336Z,11.19
2022-12-31T04:05:45.579Z,11.21
2022-12-31T04:08:12.611Z,11.23
2022-12-31T04:10:39.942Z,11.25
2022-12-31T04:13:06.878Z,11.27
2022-12-31T04:15:34.096Z,11.27
2022-12-31T04:18:01.050Z,11.29
2022-12-31T04:20:28.244Z,11.30
2022-12-31T04:22:55.122Z,11.30
2022-12-31T04:25:22.290Z,11.33
2022-12-31T04:27:49.303Z,11.34
2022-12-31T04:30:16.687Z,11.34
2022-12-31T04:32:43.572Z,11.34
2022-12-31T04:35:11.643Z,11.33
2022-12-31T04:37:39.226Z,11.32
2022-12-31T04:40:08.539Z,11.33
2022-12-31T04:42:36.505Z,11.34
2022-12-31T04:45:04.528Z,11.35
2022-12-31T04:47:31.905Z,11.39
2022-12-31T04:49:58.880Z,11.37
2022-12-31T04:52:26.135Z,11.39
2022-12-31T04:54:53.187Z,11.40
2022-12-31T04:57:20.446Z,11.39
2022-12-31T04:59:47.746Z,11.43
2022-12-31T05:02:15.144Z,11.43
2022-12-31T05:04:42.278Z,11.44
2022-12-31T05:07:09.534Z,11.45
2022-12-31T05:09:36.649Z,11.46
2022-12-31T05:12:04.138Z,11.47
2022-12-31T05:14:31.029Z,11.47
2022-12-31T05:16:59.381Z,11.52
2022-12-31T05:19:26.328Z,11.53
2022-12-31T05:22:12.239Z,11.55
2022-12-31T05:24:39.447Z,11.60
2022-12-31T05:27:06.629Z,11.62
2022-12-31T05:29:33.602Z,11.63
2022-12-31T05:32:00.808Z,11.66
2022-12-31T05:34:27.741Z,11.69
2022-12-31T05:36:54.900Z,11.70
2022-12-31T05:39:21.767Z,11.71
2022-12-31T05:41:48.970Z,11.72
2022-12-31T05:44:15.838Z,11.72
2022-12-31T05:46:43.005Z,11.72
2022-12-31T05:49:09.926Z,11.73
2022-12-31T05:51:37.228Z,11.74
2022-12-31T05:54:04.590Z,11.73
2022-12-31T05:56:32.819Z,11.76
2022-12-31T05:58:59.784Z,11.80
2022-12-31T06:01:27.079Z,11.83
2022-12-31T06:03:54.121Z,11.87
2022-12-31T06:06:21.566Z,11.96
2022-12-31T06:08:52.649Z,12.05
2022-12-31T06:11:19.971Z,12.17
2022-12-31T06:13:46.885Z,12.27
2022-12-31T06:16:14.210Z,12.30
2022-12-31T06:18:41.378Z,12.45
2022-12-31T06:21:09.329Z,12.50
2022-12-31T06:23:36.321Z,12.46
2022-12-31T06:26:05.152Z,12.61
2022-12-31T06:28:32.043Z,12.63
2022-12-31T06:31:11.053Z,12.65
2022-12-31T06:33:38.387Z,12.60
2022-12-31T06:36:09.127Z,12.66
2022-12-31T06:38:41.224Z,12.72
2022-12-31T06:41:14.954Z,12.75
2022-12-31T06:43:42.896Z,12.77
2022-12-31T06:46:14.555Z,12.76
2022-12-31T06:48:43.218Z,12.75
2022-12-31T06:51:17.916Z,12.75
2022-12-31T06:53:50.690Z,12.75
2022-12-31T06:56:32.950Z,12.75
2022-12-31T06:59:00.881Z,12.73
2022-12-31T07:01:44.770Z,12.79
2022-12-31T07:04:51.704Z,12.74
2022-12-31T07:08:03.110Z,12.80
2022-12-31T07:11:05.083Z,12.82
2022-12-31T07:14:09.452Z,12.88
2022-12-31T07:17:05.922Z,12.93
2022-12-31T07:19:57.718Z,12.98
2022-12-31T07:22:25.655Z,12.93
2022-12-31T07:24:53.418Z,12.98
2022-12-31T07:27:48.429Z,12.95
2022-12-31T07:30:17.907Z,13.02
2022-12-31T07:33:19.990Z,13.01
2022-12-31T07:36:26.267Z,13.09
2022-12-31T07:39:16.659Z,13.17
2022-12-31T07:42:16.578Z,13.19
2022-12-31T07:45:01.264Z,13.27
2022-12-31T07:47:30.126Z,13.38
2022-12-31T07:49:58.163Z,13.49
2022-12-31T07:52:26.510Z,13.56
2022-12-31T07:54:53.556Z,13.60
2022-12-31T07:57:28.754Z,13.64
2022-12-31T08:00:11.264Z,13.67
2022-12-31T08:03:20.937Z,13.73
2022-12-31T08:06:11.700Z,13.69
2022-12-31T08:09:21.544Z,13.75
2022-12-31T08:12:08.593Z,13.84
2022-12-31T08:14:44.656Z,13.91
2022-12-31T08:17:18.590Z,13.95
2022-12-31T08:19:46.745Z,13.94
2022-12-31T08:22:28.796Z,13.95
2022-12-31T08:25:27.761Z,13.93
2022-12-31T08:28:31.168Z,14.09
2022-12-31T08:31:05.526Z,14.18
2022-12-31T08:33:41.974Z,14.22
2022-12-31T08:36:34.456Z,14.28
2022-12-31T08:39:28.423Z,14.37
2022-12-31T08:41:58.374Z,14.46
2022-12-31T08:44:54.410Z,14.49
2022-12-31T08:48:05.874Z,14.59
2022-12-31T08:50:33.373Z,14.64
2022-12-31T08:53:01.215Z,14.65
2022-12-31T08:55:28.965Z,14.73
2022-12-31T08:58:28.359Z,14.81
2022-12-31T09:00:59.391Z,14.89
2022-12-31T09:03:47.900Z,14.93
2022-12-31T09:06:20.447Z,14.99
2022-12-31T09:09:21.450Z,15.00
2022-12-31T09:11:59.345Z,15.06
2022-12-31T09:15:03.786Z,15.09
2022-12-31T09:17:49.837Z,15.13
2022-12-31T09:20:41.799Z,15.09
2022-12-31T09:23:11.092Z,15.16
2022-12-31T09:26:07.074Z,15.21
2022-12-31T09:28:49.264Z,15.17
2022-12-31T09:31:55.573Z,15.22
2022-12-31T09:34:35.357Z,15.25
2022-12-31T09:37:38.684Z,15.33
2022-12-31T09:40:28.643Z,15.40
2022-12-31T09:43:43.807Z,15.43
2022-12-31T09:46:28.561Z,15.42
2022-12-31T09:49:31.620Z,15.54
2022-12-31T09:52:19.958Z,15.55
2022-12-31T09:55:07.401Z,15.57
2022-12-31T09:57:58.357Z,15.62
2022-12-31T10:00:47.215Z,15.69
2022-12-31T10:03:58.815Z,15.66
2022-12-31T10:06:47.977Z,15.68
2022-12-31T10:09:55.785Z,15.64
2022-12-31T10:12:44.598Z,15.81
2022-12-31T10:15:32.916Z,15.83
2022-12-31T10:18:41.936Z,15.93
2022-12-31T10:21:58.016Z,15.94
2022-12-31T10:25:37.792Z,16.01
2022-12-31T10:28:28.865Z,16.07
2022-12-31T10:31:31.342Z,16.09
2022-12-31T10:34:17.243Z,16.14
2022-12-31T10:36:56.387Z,16.05
2022-12-31T10:40:03.915Z,16.18
2022-12-31T10:43:04.710Z,16.23
2022-12-31T10:46:20.902Z,16.33
2022-12-31T10:49:11.454Z,16.30
2022-12-31T10:52:41.543Z,16.42
2022-12-31T10:55:43.282Z,16.46
2022-12-31T10:58:53.983Z,16.52
2022-12-31T11:01:27.276Z,16.61
2022-12-31T11:04:06.195Z,16.62
2022-12-31T11:07:17.378Z,16.73
2022-12-31T11:11:00.242Z,16.75
2022-12-31T11:14:16.196Z,16.87
2022-12-31T11:17:32.951Z,16.92
2022-12-31T11:20:33.004Z,17.01
2022-12-31T11:23:34.485Z,16.95
2022-12-31T11:26:41.558Z,17.14
2022-12-31T11:29:36.222Z,17.25
2022-12-31T11:32:46.681Z,17.26
2022-12-31T11:35:16.771Z,17.06
2022-12-31T11:37:59.094Z,17.25
2022-12-31T11:40:57.040Z,17.25
2022-12-31T11:43:39.612Z,17.38
2022-12-31T11:46:27.859Z,17.36
2022-12-31T11:49:26.555Z,17.43
2022-12-31T11:52:19.648Z,17.42
2022-12-31T11:55:45.189Z,17.51
2022-12-31T11:58:28.376Z,17.55
2022-12-31T12:01:22.730Z,17.54
2022-12-31T12:03:50.079Z,17.62
2022-12-31T12:06:25.825Z,17.57
2022-12-31T12:08:55.997Z,17.66
2022-12-31T12:11:27.788Z,17.50
2022-12-31T12:13:55.045Z,17.63
2022-12-31T12:16:25.856Z,17.57
2022-12-31T12:19:06.756Z,17.56
2022-12-31T12:21:34.788Z,17.50
2022-12-31T12:24:29.224Z,17.55
2022-12-31T12:26:57.809Z,17.66
2022-12-31T12:29:32.339Z,17.65
2022-12-31T12:32:04.356Z,17.39
2022-12-31T12:34:39.470Z,17.58
2022-12-31T12:37:24.679Z,17.54
2022-12-31T12:40:07.067Z,17.67
2022-12-31T12:42:34.323Z,17.65
2022-12-31T12:45:29.128Z,17.58
2022-12-31T12:48:01.894Z,17.68
2022-12-31T12:50:55.332Z,17.69
2022-12-31T12:53:45.509Z,17.77
2022-12-31T12:56:59.229Z,17.71
2022-12-31T13:00:10.253Z,17.75
2022-12-31T13:02:40.257Z,17.75
2022-12-31T13:05:38.572Z,17.55
2022-12-31T13:08:25.878Z,17.64
2022-12-31T13:11:26.528Z,17.65
2022-12-31T13:14:18.086Z,17.68
2022-12-31T13:17:29.647Z,17.66
2022-12-31T13:20:14.194Z,17.66
2022-12-31T13:23:16.951Z,17.56
2022-12-31T13:26:22.734Z,17.65
2022-12-31T13:28:53.773Z,17.64
2022-12-31T13:31:43.146Z,17.67
2022-12-31T13:34:24.614Z,17.64
2022-12-31T13:36:57.139Z,17.65
2022-12-31T13:39:31.405Z,17.61
2022-12-31T13:41:58.287Z,17.64
2022-12-31T13:44:54.989Z,17.63
2022-12-31T13:47:41.005Z,17.54
2022-12-31T13:50:36.526Z,17.57
2022-12-31T13:53:25.929Z,17.57
2022-12-31T13:56:03.663Z,17.51
2022-12-31T13:58:45.148Z,17.49
2022-12-31T14:01:33.499Z,17.36
2022-12-31T14:04:14.018Z,17.48
2022-12-31T14:07:07.325Z,17.44
2022-12-31T14:09:36.059Z,17.40
2022-12-31T14:12:37.720Z,17.42
2022-12-31T14:15:31.238Z,17.39
2022-12-31T14:18:04.800Z,17.35
2022-12-31T14:20:58.908Z,17.35
2022-12-31T14:23:51.116Z,17.37
2022-12-31T14:26:21.158Z,17.35
2022-12-31T14:29:03.688Z,17.35
2022-12-31T14:31:54.295Z,17.27
2022-12-31T14:34:50.786Z,17.27
2022-12-31T14:37:41.939Z,17.22
2022-12-31T14:40:30.800Z,17.29
2022-12-31T14:43:41.458Z,17.19
2022-12-31T14:46:20.645Z,17.20
2022-12-31T14:49:10.503Z,17.09
2022-12-31T14:51:37.889Z,17.08
2022-12-31T14:54:05.284Z,17.11
2022-12-31T14:56:45.272Z,17.06
2022-12-31T14:59:34.428Z,17.10
2022-12-31T15:02:28.432Z,17.09
2022-12-31T15:05:18.225Z,17.07
2022-12-31T15:07:48.392Z,17.06
2022-12-31T15:10:22.777Z,17.01
2022-12-31T15:13:19.583Z,16.99
2022-12-31T15:16:18.929Z,16.94
2022-12-31T15:19:41.160Z,16.89
2022-12-31T15:22:46.338Z,16.85
2022-12-31T15:25:25.713Z,16.82
2022-12-31T15:27:53.520Z,16.81
2022-12-31T15:30:44.114Z,16.77
2022-12-31T15:33:32.542Z,16.81
2022-12-31T15:36:21.170Z,16.80
2022-12-31T15:38:50.107Z,16.75
2022-12-31T15:41:20.288Z,16.73
2022-12-31T15:44:37.127Z,16.75
2022-12-31T15:47:29.597Z,16.75
2022-12-31T15:50:04.195Z,16.74
2022-12-31T15:52:47.829Z,16.73
2022-12-31T15:55:22.339Z,16.74
2022-12-31T15:57:50.896Z,16.71
2022-12-31T16:00:24.340Z,16.72
2022-12-31T16:02:55.397Z,16.70
2022-12-31T16:05:27.145Z,16.72
2022-12-31T16:07:58.041Z,16.75
2022-12-31T16:10:32.850Z,16.73
2022-12-31T16:13:00.478Z,16.68
2022-12-31T16:15:34.123Z,16.71
2022-12-31T16:18:11.106Z,16.74
2022-12-31T16:20:45.993Z,16.76
2022-12-31T16:23:26.389Z,16.79
2022-12-31T16:25:59.870Z,16.78
2022-12-31T16:28:33.029Z,16.78
2022-12-31T16:31:07.535Z,16.72
2022-12-31T16:33:34.793Z,16.75
2022-12-31T16:36:02.296Z,16.77
2022-12-31T16:38:37.976Z,16.80
2022-12-31T16:41:18.455Z,16.82
2022-12-31T16:43:49.129Z,16.83
2022-12-31T16:46:31.922Z,16.83
2022-12-31T16:49:07.195Z,16.82
2022-12-31T16:51:37.668Z,16.77
2022-12-31T16:54:05.068Z,16.73
2022-12-31T16:56:39.626Z,16.67
2022-12-31T16:59:35.656Z,16.62
2022-12-31T17:02:14.129Z,16.55
2022-12-31T17:04:48.097Z,16.53
2022-12-31T17:07:41.056Z,16.53
2022-12-31T17:10:08.170Z,16.54
2022-12-31T17:13:25.033Z,16.55
2022-12-31T17:15:41.858Z,16.54
2022-12-31T17:18:20.537Z,16.54
2022-12-31T17:20:51.624Z,16.51
2022-12-31T17:23:32.643Z,16.52
2022-12-31T17:26:13.941Z,16.55
2022-12-31T17:28:48.713Z,16.57
2022-12-31T17:31:33.643Z,16.57
2022-12-31T17:34:12.509Z,16.56
2022-12-31T17:37:00.586Z,16.56
2022-12-31T17:39:44.592Z,16.56
2022-12-31T17:42:15.480Z,16.56
2022-12-31T17:44:44.693Z,16.54
2022-12-31T17:47:16.420Z,16.52
2022-12-31T17:49:46.627Z,16.48
2022-12-31T17:52:16.162Z,16.44
2022-12-31T17:54:43.129Z,16.45
2022-12-31T17:57:27.871Z,16.43
2022-12-31T17:59:55.231Z,16.42
2022-12-31T18:02:22.501Z,16.42
2022-12-31T18:04:49.662Z,16.39
2022-12-31T18:07:16.873Z,16.39
2022-12-31T18:09:43.730Z,16.39
2022-12-31T18:12:15.856Z,16.32
2022-12-31T18:14:45.862Z,16.35
2022-12-31T18:17:16.457Z,16.36
2022-12-31T18:20:04.089Z,16.36
2022-12-31T18:22:30.908Z,16.30
2022-12-31T18:24:57.770Z,16.27
2022-12-31T18:27:24.974Z,16.29
2022-12-31T18:29:51.964Z,16.28
2022-12-31T18:32:23.964Z,16.29
2022-12-31T18:34:51.684Z,16.26
2022-12-31T18:37:22.242Z,16.28
2022-12-31T18:39:49.523Z,16.28
2022-12-31T18:42:19.178Z,16.31
2022-12-31T18:44:47.099Z,16.36
2022-12-31T18:47:19.818Z,16.38
2022-12-31T18:49:48.592Z,16.45
2022-12-31T18:52:21.677Z,16.39
2022-12-31T18:54:49.922Z,16.41
2022-12-31T18:57:17.252Z,16.45
2022-12-31T18:59:44.172Z,16.41
2022-12-31T19:02:20.392Z,16.41
2022-12-31T19:04:48.561Z,16.45
2022-12-31T19:07:15.712Z,16.46
2022-12-31T19:09:45.592Z,16.42
2022-12-31T19:12:14.959Z,16.42
2022-12-31T19:14:42.050Z,16.39
2022-12-31T19:19:35.115Z,16.38
2022-12-31T19:22:02.921Z,16.33
2022-12-31T19:24:30.197Z,16.30
2022-12-31T19:26:57.604Z,16.28
2022-12-31T19:29:27.146Z,16.19
2022-12-31T19:31:54.909Z,16.16
2022-12-31T19:34:22.232Z,16.12
2022-12-31T19:36:49.542Z,16.09
2022-12-31T19:39:21.238Z,16.10
2022-12-31T19:41:56.475Z,16.02
2022-12-31T19:44:26.592Z,16.06
2022-12-31T19:46:53.773Z,16.02
2022-12-31T19:49:20.821Z,16.05
2022-12-31T19:51:48.159Z,16.01
2022-12-31T19:54:15.279Z,16.06
2022-12-31T19:56:42.590Z,16.06
2022-12-31T19:59:10.911Z,15.93
2022-12-31T20:01:38.861Z,15.93
2022-12-31T20:04:05.966Z,15.99
2022-12-31T20:06:33.384Z,15.98
2022-12-31T20:09:00.416Z,16.04
2022-12-31T20:11:27.784Z,16.02
2022-12-31T20:13:54.759Z,15.90
2022-12-31T20:16:26.710Z,15.94
2022-12-31T20:18:54.230Z,15.90
2022-12-31T20:21:28.074Z,15.95
2022-12-31T20:23:56.373Z,15.91
2022-12-31T20:26:25.988Z,15.92
2022-12-31T20:28:53.677Z,15.93
2022-12-31T20:31:25.435Z,15.92
2022-12-31T20:33:54.724Z,15.93
2022-12-31T20:36:23.368Z,15.93
2022-12-31T20:38:50.511Z,15.96
2022-12-31T20:41:22.950Z,15.91
2022-12-31T20:43:50.662Z,15.88
2022-12-31T20:46:22.489Z,15.85
2022-12-31T20:48:52.486Z,15.85
2022-12-31T20:51:22.863Z,15.85
2022-12-31T20:53:55.496Z,15.89
2022-12-31T20:56:24.920Z,15.89
2022-12-31T20:58:51.939Z,15.86
2022-12-31T21:01:19.640Z,15.79
2022-12-31T21:04:06.211Z,15.73
2022-12-31T21:06:35.854Z,15.74
2022-12-31T21:09:06.658Z,15.75
2022-12-31T21:11:52.838Z,15.75
2022-12-31T21:14:19.924Z,15.81
2022-12-31T21:16:47.297Z,15.87
2022-12-31T21:19:14.304Z,15.81
2022-12-31T21:21:41.882Z,15.80
2022-12-31T21:24:09.132Z,15.79
2022-12-31T21:26:36.554Z,15.80
2022-12-31T21:29:03.497Z,15.83
2022-12-31T21:31:30.843Z,15.83
2022-12-31T21:33:57.804Z,15.82
2022-12-31T21:36:24.997Z,15.81
2022-12-31T21:38:51.949Z,15.76
2022-12-31T21:41:37.823Z,15.78
2022-12-31T21:44:04.783Z,15.74
2022-12-31T21:46:32.145Z,15.74
2022-12-31T21:49:00.644Z,15.76
2022-12-31T21:51:29.119Z,15.74
2022-12-31T21:53:56.666Z,15.73
2022-12-31T21:56:24.650Z,15.71
2022-12-31T21:59:16.746Z,15.71
2022-12-31T22:02:03.134Z,15.70
2022-12-31T22:07:17.887Z,15.63
2022-12-31T22:09:44.891Z,15.61
2022-12-31T22:12:12.165Z,15.62
2022-12-31T22:14:39.278Z,15.59
2022-12-31T22:17:26.482Z,15.58
2022-12-31T22:20:17.544Z,15.58
2022-12-31T22:22:40.536Z,15.53
2022-12-31T22:25:08.739Z,15.53
2022-12-31T22:27:35.908Z,15.51
2022-12-31T22:30:03.015Z,15.50
2022-12-31T22:32:30.291Z,15.46
2022-12-31T22:34:57.237Z,15.45
2022-12-31T22:37:55.537Z,15.46
2022-12-31T22:40:11.964Z,15.46
2022-12-31T22:42:39.181Z,15.46
2022-12-31T22:45:08.549Z,15.46
2022-12-31T22:47:35.794Z,15.48
2022-12-31T22:50:02.805Z,15.50
2022-12-31T22:52:31.023Z,15.54
2022-12-31T22:54:58.075Z,15.58
2022-12-31T22:57:25.198Z,15.60
2022-12-31T22:59:52.138Z,15.62
2022-12-31T23:02:19.349Z,15.63
2022-12-31T23:04:46.459Z,15.63
2022-12-31T23:07:13.714Z,15.63
2022-12-31T23:09:59.097Z,15.62
2022-12-31T23:12:26.606Z,15.59
2022-12-31T23:15:11.906Z,15.57
2022-12-31T23:17:57.621Z,15.56
2022-12-31T23:20:44.012Z,15.54
2022-12-31T23:23:16.907Z,15.52
2022-12-31T23:25:48.592Z,15.49
2022-12-31T23:28:22.610Z,15.49
2022-12-31T23:30:51.594Z,15.48
2022-12-31T23:33:26.317Z,15.46
2022-12-31T23:36:07.287Z,15.45
2022-12-31T23:38:34.568Z,15.44
2022-12-31T23:41:10.732Z,15.46
2022-12-31T23:43:37.980Z,15.46
2022-12-31T23:46:05.086Z,15.46
2022-12-31T23:48:32.282Z,15.45
2022-12-31T23:50:59.280Z,15.39
2022-12-31T23:53:26.537Z,15.45
2022-12-31T23:55:54.047Z,15.44
2022-12-31T23:58:22.390Z,15.47
